Time;durP1;ratioP1;P1;durP2;ratioP2;P2;SDS_P1;SDS_P2;PMS_P1;PMS_P2;Temp;Humidity;BMP_temperature;BMP_pressure;BME280_temperature;BME280_humidity;BME280_pressure;Samples;Min_cycle;Max_cycle;Signal;HPM_P1;HPM_P2
2022/11/18 00:01:10;;;;;;;0.70;0.35;;;25.30;46.70;;;;;;5002047;28;20375;-71
2022/11/18 00:03:38;;;;;;;4.57;0.95;;;25.80;45.70;;;;;;5010653;28;20026;-72
2022/11/18 00:06:05;;;;;;;1.42;0.40;;;26.10;50.60;;;;;;5010025;28;20088;-71
2022/11/18 00:08:33;;;;;;;0.95;0.30;;;26.20;45.20;;;;;;5010575;28;20027;-68
2022/11/18 00:14:17;;;;;;;1.70;0.32;;;26.20;42.10;;;;;;5018659;28;20030;-68
2022/11/18 00:16:45;;;;;;;4.75;0.80;;;26.10;43.00;;;;;;5015490;28;20145;-67
2022/11/18 00:19:12;;;;;;;3.10;0.68;;;26.20;45.50;;;;;;5009170;28;20485;-66
2022/11/18 00:21:39;;;;;;;3.33;0.50;;;26.50;44.70;;;;;;5011809;28;20018;-67
2022/11/18 00:24:07;;;;;;;2.20;0.40;;;27.00;43.80;;;;;;5006094;28;20529;-69
2022/11/18 00:26:35;;;;;;;1.83;0.43;;;26.90;44.00;;;;;;5008942;28;20042;-66
2022/11/18 00:29:03;;;;;;;1.58;0.40;;;27.10;44.40;;;;;;5005092;28;20077;-67
2022/11/18 00:31:30;;;;;;;0.93;0.40;;;27.20;46.40;;;;;;5003045;28;20045;-67
2022/11/18 00:33:57;;;;;;;1.35;0.32;;;26.90;44.50;;;;;;5009880;28;20037;-67
2022/11/18 00:36:24;;;;;;;2.35;0.40;;;26.10;43.40;;;;;;5017343;28;20403;-68
2022/11/18 00:38:51;;;;;;;2.30;0.82;;;25.40;44.60;;;;;;5009302;28;20091;-66
2022/11/18 00:41:19;;;;;;;6.97;0.73;;;25.30;46.20;;;;;;5012616;28;20026;-67
2022/11/18 00:43:46;;;;;;;1.60;0.40;;;25.20;48.80;;;;;;5024488;28;20100;-68
2022/11/18 00:46:13;;;;;;;5.45;1.23;;;25.10;45.10;;;;;;5012192;28;20208;-68
2022/11/18 00:48:41;;;;;;;2.92;0.68;;;25.00;45.00;;;;;;5014202;28;20505;-67
2022/11/18 00:51:18;;;;;;;3.08;0.68;;;25.00;46.90;;;;;;5008574;28;20080;-67
2022/11/18 00:53:45;;;;;;;1.05;0.40;;;25.10;47.50;;;;;;5007025;28;20505;-67
2022/11/18 00:56:13;;;;;;;0.73;0.40;;;24.90;44.40;;;;;;5009792;28;20623;-67
2022/11/18 00:58:40;;;;;;;0.73;0.40;;;25.10;47.20;;;;;;5014334;28;20516;-66
2022/11/18 01:01:07;;;;;;;2.42;0.43;;;25.60;47.20;;;;;;5011165;28;20434;-66
2022/11/18 01:03:34;;;;;;;1.85;0.30;;;25.90;44.90;;;;;;5022002;28;20033;-66
2022/11/18 01:06:01;;;;;;;2.47;0.60;;;26.20;45.10;;;;;;5012228;28;20069;-66
2022/11/18 01:08:28;;;;;;;1.50;0.20;;;26.40;46.60;;;;;;5012384;28;20026;-66
2022/11/18 01:13:18;;;;;;;0.95;0.40;;;26.80;46.70;;;;;;5017021;28;20025;-67
2022/11/18 01:13:43;;;;;;;2.22;0.35;;;26.70;43.70;;;;;;5009868;28;20038;-67
2022/11/18 01:16:10;;;;;;;1.40;0.40;;;27.20;43.60;;;;;;5009522;28;20053;-68
2022/11/18 01:18:37;;;;;;;3.30;0.50;;;27.90;43.00;;;;;;5011622;28;20021;-68
2022/11/18 01:21:05;;;;;;;2.13;0.60;;;28.20;43.20;;;;;;5007054;28;20061;-66
2022/11/18 01:23:32;;;;;;;3.42;0.45;;;27.50;42.00;;;;;;5007022;28;20057;-67
2022/11/18 01:26:05;;;;;;;2.28;0.50;;;27.20;43.70;;;;;;5027803;28;20498;-68
2022/11/18 01:28:32;;;;;;;2.28;0.32;;;26.80;41.60;;;;;;5011753;28;20018;-66
2022/11/18 01:31:14;;;;;;;4.25;0.50;;;26.30;41.60;;;;;;5007025;28;20117;-66
2022/11/18 01:33:42;;;;;;;1.95;0.40;;;25.40;42.60;;;;;;5006384;28;20042;-67
2022/11/18 01:36:23;;;;;;;0.65;0.40;;;24.50;45.40;;;;;;5013556;28;20019;-66
2022/11/18 01:38:51;;;;;;;2.60;0.50;;;24.50;46.40;;;;;;5009187;28;20037;-66
2022/11/18 01:41:21;;;;;;;2.30;0.60;;;25.00;49.70;;;;;;5007826;28;20054;-66
2022/11/18 01:43:59;;;;;;;4.80;0.77;;;25.60;45.40;;;;;;5006757;28;20022;-67
2022/11/18 01:46:29;;;;;;;2.28;0.63;;;25.80;45.50;;;;;;5011441;28;20041;-70
2022/11/18 01:49:07;;;;;;;1.35;0.50;;;26.30;45.00;;;;;;5021853;28;20030;-68
2022/11/18 01:51:43;;;;;;;3.65;0.45;;;26.70;45.20;;;;;;5012470;28;20034;-68
2022/11/18 01:54:16;;;;;;;2.17;0.77;;;27.00;44.30;;;;;;5036355;28;20227;-67
2022/11/18 01:56:46;;;;;;;0.95;0.38;;;27.00;42.70;;;;;;5019012;28;20052;-68
2022/11/18 01:59:27;;;;;;;2.95;0.60;;;26.90;45.20;;;;;;5026931;28;20103;-69
2022/11/18 02:01:58;;;;;;;1.23;0.75;;;27.40;45.00;;;;;;5015856;28;20422;-71
2022/11/18 02:04:27;;;;;;;1.70;0.43;;;27.60;45.30;;;;;;5002198;28;20025;-71
2022/11/18 02:06:54;;;;;;;2.72;1.05;;;27.50;43.10;;;;;;5011832;28;20030;-69
2022/11/18 02:09:22;;;;;;;1.45;0.40;;;28.10;47.90;;;;;;5024438;28;20033;-70
2022/11/18 02:11:50;;;;;;;1.48;0.45;;;27.50;45.00;;;;;;5008990;28;20037;-69
2022/11/18 02:14:22;;;;;;;1.17;0.30;;;26.40;44.50;;;;;;5011954;28;20364;-69
2022/11/18 02:17:10;;;;;;;4.32;0.70;;;25.40;44.70;;;;;;5019765;28;20036;-70
2022/11/18 02:19:46;;;;;;;10.15;0.73;;;24.70;46.70;;;;;;5020463;28;20048;-69
2022/11/18 02:22:50;;;;;;;3.15;0.68;;;24.00;48.10;;;;;;5014205;28;20026;-68
2022/11/18 02:25:43;;;;;;;5.30;1.02;;;23.60;48.30;;;;;;5011737;28;20066;-67
2022/11/18 02:28:31;;;;;;;3.22;0.65;;;23.60;50.30;;;;;;5012043;28;20466;-67
2022/11/18 02:31:54;;;;;;;3.50;0.60;;;24.00;48.40;;;;;;5008217;28;20364;-67
2022/11/18 02:34:42;;;;;;;5.60;0.73;;;23.50;48.70;;;;;;4925378;29;20047;-67
2022/11/18 02:37:28;;;;;;;2.83;0.70;;;23.30;49.60;;;;;;5010967;28;20060;-68
2022/11/18 02:40:34;;;;;;;7.90;1.15;;;23.30;49.90;;;;;;5013691;28;20487;-68
2022/11/18 02:43:09;;;;;;;1.58;0.50;;;23.80;49.00;;;;;;5009799;28;20052;-67
2022/11/18 02:45:40;;;;;;;0.45;0.40;;;24.80;47.50;;;;;;5015461;28;20500;-67
2022/11/18 02:48:11;;;;;;;0.85;0.40;;;25.60;46.20;;;;;;5012201;28;20018;-66
2022/11/18 02:50:41;;;;;;;5.97;0.40;;;26.30;45.80;;;;;;5008005;28;20432;-67
2022/11/18 02:53:12;;;;;;;0.70;0.50;;;26.80;44.40;;;;;;5015962;28;20045;-67
2022/11/18 02:55:41;;;;;;;1.10;0.52;;;26.20;44.20;;;;;;5012284;28;20387;-67
2022/11/18 02:58:10;;;;;;;5.28;0.55;;;25.80;45.20;;;;;;5014575;28;20487;-69
2022/11/18 03:00:38;;;;;;;4.55;0.68;;;26.00;44.30;;;;;;5017087;28;20116;-65
2022/11/18 03:03:35;;;;;;;3.85;0.60;;;26.10;43.90;;;;;;5010712;28;20014;-67
2022/11/18 03:06:29;;;;;;;4.10;0.75;;;26.30;44.50;;;;;;5003432;28;20042;-67
2022/11/18 03:09:05;;;;;;;1.23;0.50;;;25.70;45.10;;;;;;5022333;28;20372;-65
2022/11/18 03:11:49;;;;;;;3.20;0.60;;;25.40;45.70;;;;;;5010144;28;20084;-72
2022/11/18 03:14:37;;;;;;;3.83;0.55;;;25.60;46.40;;;;;;5014506;28;20021;-72
2022/11/18 03:17:20;;;;;;;2.30;0.70;;;25.80;45.20;;;;;;5005482;28;20034;-70
2022/11/18 03:20:23;;;;;;;4.38;0.50;;;24.90;48.00;;;;;;5021469;28;20053;-68
2022/11/18 03:23:18;;;;;;;1.52;0.43;;;24.80;46.60;;;;;;4978413;28;20125;-66
2022/11/18 03:25:58;;;;;;;2.55;0.70;;;24.70;48.80;;;;;;5010444;28;20038;-68
2022/11/18 03:28:50;;;;;;;3.58;0.43;;;24.20;49.80;;;;;;5006335;28;20042;-70
2022/11/18 03:31:49;;;;;;;2.22;0.77;;;24.20;50.00;;;;;;4985858;28;20038;-68
2022/11/18 03:34:41;;;;;;;6.43;0.65;;;24.00;49.30;;;;;;5003620;28;20433;-68
2022/11/18 03:37:12;;;;;;;1.40;0.57;;;23.30;51.20;;;;;;5005573;28;20119;-68
2022/11/18 03:39:44;;;;;;;2.17;0.50;;;23.10;50.80;;;;;;5007385;28;20026;-69
2022/11/18 03:42:24;;;;;;;5.05;0.75;;;23.30;51.70;;;;;;5003179;28;20022;-70
2022/11/18 03:45:00;;;;;;;2.33;0.50;;;23.50;50.70;;;;;;5006639;28;20083;-69
2022/11/18 03:47:34;;;;;;;3.88;0.70;;;23.60;51.50;;;;;;5003043;28;20029;-69
2022/11/18 03:50:21;;;;;;;3.00;0.50;;;23.70;51.20;;;;;;5010185;28;20018;-69
2022/11/18 03:52:51;;;;;;;3.45;0.60;;;24.20;52.80;;;;;;5006280;28;20025;-69
2022/11/18 03:55:28;;;;;;;1.27;0.50;;;24.30;52.10;;;;;;5000298;28;20038;-68
2022/11/18 03:58:07;;;;;;;2.05;0.52;;;24.00;50.70;;;;;;5001088;28;20034;-67
2022/11/18 04:00:41;;;;;;;4.32;0.70;;;23.40;51.30;;;;;;5003169;28;20024;-68
2022/11/18 04:03:09;;;;;;;2.92;0.70;;;23.10;52.70;;;;;;4999581;28;20402;-68
2022/11/18 04:05:41;;;;;;;3.10;1.10;;;22.90;52.40;;;;;;5000387;28;20128;-69
2022/11/18 04:08:21;;;;;;;3.70;0.60;;;23.10;55.20;;;;;;5003771;28;20104;-69
2022/11/18 04:10:50;;;;;;;6.60;0.77;;;23.60;53.90;;;;;;5000333;28;20573;-71
2022/11/18 04:13:28;;;;;;;9.15;1.10;;;23.40;52.50;;;;;;5002638;28;20395;-69
2022/11/18 04:15:55;;;;;;;3.75;0.80;;;23.30;54.10;;;;;;5004830;28;20034;-68
2022/11/18 04:18:23;;;;;;;5.22;0.80;;;23.50;53.20;;;;;;5000966;28;20026;-67
2022/11/18 04:20:50;;;;;;;3.30;0.60;;;23.50;53.20;;;;;;5003181;28;20026;-69
2022/11/18 04:23:17;;;;;;;4.05;0.90;;;23.20;53.30;;;;;;5002129;28;20022;-69
2022/11/18 04:25:45;;;;;;;3.22;0.88;;;23.00;53.90;;;;;;5002454;28;20065;-70
2022/11/18 04:28:12;;;;;;;5.18;0.65;;;23.20;55.40;;;;;;5000836;28;21065;-67
2022/11/18 04:30:40;;;;;;;5.78;0.90;;;23.40;54.90;;;;;;4998378;28;20030;-71
2022/11/18 04:33:07;;;;;;;3.88;0.60;;;23.10;54.00;;;;;;5009296;28;20081;-70
2022/11/18 04:35:35;;;;;;;3.85;0.60;;;23.10;54.80;;;;;;5003313;28;20038;-70
2022/11/18 04:38:02;;;;;;;3.60;0.63;;;23.10;54.60;;;;;;5007654;28;20026;-71
2022/11/18 04:40:32;;;;;;;3.47;0.77;;;23.10;55.30;;;;;;5011478;28;20055;-70
2022/11/18 04:43:00;;;;;;;2.80;0.50;;;23.30;56.40;;;;;;5009657;28;20553;-71
2022/11/18 04:45:27;;;;;;;3.35;0.80;;;23.60;55.70;;;;;;5005283;28;20044;-72
2022/11/18 04:47:54;;;;;;;7.25;0.60;;;23.10;56.90;;;;;;5006669;28;20033;-72
2022/11/18 04:50:22;;;;;;;4.93;0.52;;;23.20;55.90;;;;;;5011535;28;20018;-73
2022/11/18 04:52:49;;;;;;;3.90;0.77;;;23.00;55.40;;;;;;5016641;28;20087;-72
2022/11/18 04:55:16;;;;;;;3.08;0.65;;;22.80;55.30;;;;;;5017669;28;20109;-71
2022/11/18 04:57:44;;;;;;;5.55;0.77;;;22.80;55.80;;;;;;5021894;28;20064;-72
2022/11/18 05:00:11;;;;;;;3.35;0.60;;;23.10;55.90;;;;;;5013966;28;20125;-72
2022/11/18 05:02:38;;;;;;;3.08;0.70;;;23.40;56.10;;;;;;5014670;28;20091;-71
2022/11/18 05:05:06;;;;;;;4.43;0.65;;;23.30;55.00;;;;;;5023763;28;20095;-71
2022/11/18 05:07:33;;;;;;;4.57;0.70;;;23.10;55.90;;;;;;5012808;28;20026;-72
2022/11/18 05:10:00;;;;;;;4.22;0.70;;;23.20;56.30;;;;;;5008617;28;20068;-71
2022/11/18 05:15:14;;;;;;;3.05;0.70;;;22.70;56.70;;;;;;5005800;28;20107;-70
2022/11/18 05:17:42;;;;;;;6.60;0.70;;;22.50;57.60;;;;;;5008264;28;20068;-72
2022/11/18 05:20:10;;;;;;;5.03;0.80;;;22.60;57.80;;;;;;5022144;28;20042;-73
2022/11/18 05:22:37;;;;;;;2.60;0.70;;;22.80;58.00;;;;;;5014749;28;20433;-72
2022/11/18 05:25:05;;;;;;;3.20;0.70;;;22.90;57.10;;;;;;5014357;28;20040;-71
2022/11/18 05:27:32;;;;;;;5.50;1.10;;;22.80;55.80;;;;;;5014159;28;20467;-71
2022/11/18 05:29:59;;;;;;;3.15;0.50;;;22.40;56.10;;;;;;5021808;28;20032;-71
2022/11/18 05:32:26;;;;;;;5.47;0.82;;;22.20;56.80;;;;;;5013426;28;20038;-71
2022/11/18 05:34:54;;;;;;;5.35;0.75;;;22.10;57.00;;;;;;5004892;28;20088;-73
2022/11/18 05:37:21;;;;;;;2.05;0.60;;;22.00;57.50;;;;;;5007633;28;20046;-71
2022/11/18 05:39:48;;;;;;;1.63;0.63;;;21.80;58.20;;;;;;5007082;28;20519;-72
2022/11/18 05:45:00;;;;;;;4.45;0.77;;;21.80;58.70;;;;;;5003569;28;20127;-69
2022/11/18 05:47:58;;;;;;;9.43;0.90;;;22.20;58.50;;;;;;5006625;28;20037;-71
2022/11/18 05:50:15;;;;;;;2.65;0.60;;;22.00;58.40;;;;;;5005544;28;20149;-71
2022/11/18 05:52:42;;;;;;;2.38;0.90;;;22.00;59.50;;;;;;5008913;28;20033;-70
2022/11/18 05:55:13;;;;;;;3.72;0.82;;;22.10;57.90;;;;;;5009102;28;20030;-71
2022/11/18 05:57:40;;;;;;;4.75;0.70;;;22.10;59.00;;;;;;5009219;28;20117;-71
2022/11/18 06:00:08;;;;;;;2.58;0.80;;;21.90;58.50;;;;;;5007753;28;20014;-70
2022/11/18 06:02:35;;;;;;;1.42;0.50;;;21.90;59.80;;;;;;5009012;28;20029;-71
2022/11/18 06:05:04;;;;;;;3.65;0.60;;;22.10;59.50;;;;;;5009251;28;20036;-70
2022/11/18 06:07:43;;;;;;;1.67;0.60;;;22.30;58.90;;;;;;5008921;28;20030;-70
2022/11/18 06:10:34;;;;;;;5.57;0.63;;;22.10;58.40;;;;;;5009094;28;20048;-70
2022/11/18 06:13:09;;;;;;;5.05;1.20;;;22.10;58.70;;;;;;5012677;28;20029;-71
2022/11/18 06:15:42;;;;;;;5.10;0.70;;;22.30;58.40;;;;;;5012467;28;20105;-70
2022/11/18 06:18:29;;;;;;;1.85;0.50;;;22.30;58.30;;;;;;5012719;28;20022;-71
2022/11/18 06:21:03;;;;;;;9.90;0.80;;;22.60;57.50;;;;;;5012374;28;20033;-70
2022/11/18 06:23:34;;;;;;;4.05;0.55;;;22.60;56.60;;;;;;5012247;28;20022;-72
2022/11/18 06:26:02;;;;;;;2.65;0.70;;;22.50;56.70;;;;;;5010720;28;20056;-72
2022/11/18 06:28:30;;;;;;;3.20;0.88;;;22.20;57.00;;;;;;5012656;28;20467;-71
2022/11/18 06:30:57;;;;;;;2.65;0.73;;;22.20;57.60;;;;;;5012424;28;20036;-71
2022/11/18 06:33:25;;;;;;;3.33;0.85;;;22.20;58.40;;;;;;5011888;28;20408;-70
2022/11/18 06:35:52;;;;;;;1.05;0.40;;;22.30;58.20;;;;;;5012713;28;20029;-70
2022/11/18 06:38:22;;;;;;;3.53;0.70;;;22.30;58.40;;;;;;5012581;28;20087;-70
2022/11/18 06:40:50;;;;;;;3.95;0.50;;;22.50;58.10;;;;;;5012416;28;20032;-70
2022/11/18 06:48:48;;;;;;;4.45;0.70;;;22.20;58.80;;;;;;5012312;28;20087;-72
2022/11/18 06:51:16;;;;;;;2.22;0.75;;;22.10;59.00;;;;;;5011986;28;20026;-71
2022/11/18 06:53:43;;;;;;;2.00;0.70;;;21.80;59.70;;;;;;5012001;28;20050;-72
2022/11/18 06:56:15;;;;;;;2.47;0.85;;;21.70;59.60;;;;;;5011991;28;20032;-73
2022/11/18 06:58:42;;;;;;;3.15;0.57;;;21.40;60.20;;;;;;5012008;28;20017;-71
2022/11/18 07:01:18;;;;;;;5.40;0.70;;;21.30;60.10;;;;;;5011530;28;20026;-71
2022/11/18 07:03:46;;;;;;;4.38;0.80;;;21.30;61.00;;;;;;5011776;28;20096;-71
2022/11/18 07:06:19;;;;;;;4.28;0.82;;;21.30;60.40;;;;;;5011637;28;20037;-70
2022/11/18 07:08:47;;;;;;;5.10;0.80;;;21.10;60.30;;;;;;5011886;28;20022;-71
2022/11/18 07:11:16;;;;;;;1.63;0.80;;;21.00;60.80;;;;;;5011619;28;20026;-71
2022/11/18 07:13:44;;;;;;;1.77;0.60;;;20.80;61.60;;;;;;5011728;28;20429;-70
2022/11/18 07:16:21;;;;;;;3.13;0.60;;;20.70;61.80;;;;;;5011301;28;20391;-70
2022/11/18 07:18:49;;;;;;;1.42;0.70;;;20.50;62.60;;;;;;5011527;28;20029;-70
2022/11/18 07:21:25;;;;;;;3.88;0.55;;;20.40;63.60;;;;;;5009928;28;20026;-69
2022/11/18 07:23:53;;;;;;;4.45;0.40;;;20.20;64.30;;;;;;5009008;28;20026;-70
2022/11/18 07:26:21;;;;;;;1.83;0.70;;;20.10;65.50;;;;;;5009627;28;20045;-70
2022/11/18 07:28:48;;;;;;;1.67;0.52;;;20.10;66.20;;;;;;5004630;28;20026;-68
2022/11/18 07:31:18;;;;;;;5.32;0.70;;;20.00;67.60;;;;;;5010351;28;20026;-68
2022/11/18 07:33:47;;;;;;;4.30;0.70;;;19.80;68.30;;;;;;5008747;28;20033;-70
2022/11/18 07:36:21;;;;;;;2.63;0.63;;;19.80;68.60;;;;;;5010046;28;20033;-70
2022/11/18 07:38:49;;;;;;;5.30;0.65;;;19.50;69.30;;;;;;5016418;28;20026;-71
2022/11/18 07:41:22;;;;;;;3.95;0.75;;;19.40;69.20;;;;;;5008145;28;20544;-68
2022/11/18 07:43:50;;;;;;;2.42;0.77;;;19.20;69.20;;;;;;5007730;28;20026;-70
2022/11/18 07:46:19;;;;;;;1.05;0.40;;;19.00;69.40;;;;;;5010653;28;20088;-69
2022/11/18 07:48:48;;;;;;;5.85;0.63;;;18.90;70.00;;;;;;5033433;28;20025;-70
2022/11/18 07:51:17;;;;;;;1.33;0.95;;;18.70;70.70;;;;;;5010540;28;20022;-68
2022/11/18 07:53:45;;;;;;;2.33;0.60;;;18.50;72.00;;;;;;5009145;28;20430;-69
2022/11/18 07:56:13;;;;;;;2.00;0.65;;;18.50;73.20;;;;;;5008527;28;20057;-68
2022/11/18 07:58:41;;;;;;;7.43;1.27;;;18.40;74.10;;;;;;5010647;28;20042;-68
2022/11/18 08:01:15;;;;;;;5.38;0.80;;;18.30;75.00;;;;;;5008086;28;20026;-69
2022/11/18 08:03:44;;;;;;;1.85;0.50;;;18.20;76.10;;;;;;5008320;28;20033;-69
2022/11/18 08:06:14;;;;;;;5.38;0.80;;;18.10;76.80;;;;;;5010294;28;20049;-68
2022/11/18 08:08:42;;;;;;;3.33;0.70;;;18.00;77.80;;;;;;5009754;28;20026;-69
2022/11/18 08:11:12;;;;;;;7.80;0.88;;;17.90;78.30;;;;;;5011256;28;20084;-68
2022/11/18 08:13:39;;;;;;;5.85;0.90;;;17.90;79.20;;;;;;5008831;28;20030;-68
2022/11/18 08:16:17;;;;;;;7.68;0.60;;;17.80;79.30;;;;;;5009800;28;20503;-69
2022/11/18 08:18:45;;;;;;;2.97;0.60;;;17.70;79.40;;;;;;5009852;28;20033;-69
2022/11/18 08:21:12;;;;;;;3.72;0.60;;;17.60;80.50;;;;;;5009834;28;20034;-69
2022/11/18 08:23:40;;;;;;;7.78;1.52;;;17.50;80.80;;;;;;5009547;28;20022;-69
2022/11/18 08:26:10;;;;;;;3.92;1.00;;;17.40;81.50;;;;;;5009942;28;20025;-70
2022/11/18 08:28:41;;;;;;;4.93;1.13;;;17.40;82.20;;;;;;5010287;28;20018;-69
2022/11/18 08:31:14;;;;;;;2.17;1.23;;;17.30;83.10;;;;;;5002808;28;20383;-71
2022/11/18 08:33:41;;;;;;;6.22;0.70;;;17.20;84.70;;;;;;5003855;28;20046;-70
2022/11/18 08:36:17;;;;;;;4.05;0.63;;;17.20;85.50;;;;;;5005033;28;20056;-70
2022/11/18 08:38:44;;;;;;;5.15;0.85;;;17.10;86.00;;;;;;5006397;28;20032;-68
2022/11/18 08:41:18;;;;;;;3.53;0.60;;;17.00;86.70;;;;;;5005325;28;20096;-65
2022/11/18 08:43:45;;;;;;;4.18;0.70;;;17.00;87.80;;;;;;5004988;28;20018;-66
2022/11/18 08:46:15;;;;;;;1.95;0.50;;;16.80;88.20;;;;;;5003504;28;20115;-66
2022/11/18 08:48:43;;;;;;;4.28;0.73;;;16.80;89.30;;;;;;5003222;28;20550;-66
2022/11/18 08:51:12;;;;;;;5.35;0.63;;;16.70;89.60;;;;;;5005051;28;20057;-65
2022/11/18 08:53:40;;;;;;;6.25;1.13;;;16.70;88.80;;;;;;5004100;28;20025;-66
2022/11/18 08:56:12;;;;;;;8.10;0.70;;;16.60;89.70;;;;;;5004975;28;20034;-66
2022/11/18 08:58:39;;;;;;;2.30;0.40;;;16.60;90.40;;;;;;5005459;28;20014;-68
2022/11/18 09:01:07;;;;;;;6.88;0.60;;;16.50;90.70;;;;;;5004853;28;20026;-66
2022/11/18 09:03:34;;;;;;;5.30;1.20;;;16.40;91.20;;;;;;5001246;28;20367;-67
2022/11/18 09:06:14;;;;;;;9.43;0.95;;;16.40;91.90;;;;;;5004505;28;20042;-65
2022/11/18 09:08:42;;;;;;;13.85;1.02;;;16.30;92.20;;;;;;5006426;28;20041;-66
2022/11/18 09:11:15;;;;;;;3.88;0.95;;;16.30;92.70;;;;;;5003776;28;20030;-66
2022/11/18 09:13:42;;;;;;;3.88;0.90;;;16.20;93.20;;;;;;5005804;28;20045;-66
2022/11/18 09:16:10;;;;;;;6.22;0.82;;;16.10;93.30;;;;;;5005543;28;20022;-66
2022/11/18 09:18:37;;;;;;;3.85;1.00;;;16.10;93.80;;;;;;5004580;28;20044;-68
2022/11/18 09:21:09;;;;;;;6.60;1.15;;;16.10;94.10;;;;;;5007080;28;20030;-66
2022/11/18 09:23:38;;;;;;;3.47;0.70;;;16.10;94.20;;;;;;5005474;28;20033;-66
2022/11/18 09:26:08;;;;;;;3.13;0.90;;;16.00;94.30;;;;;;5005652;28;20041;-65
2022/11/18 09:28:36;;;;;;;3.95;0.70;;;16.00;94.70;;;;;;5003852;28;20026;-66
2022/11/18 09:31:08;;;;;;;3.55;0.80;;;16.00;95.10;;;;;;5003461;28;20034;-65
2022/11/18 09:33:39;;;;;;;5.35;0.70;;;15.90;95.10;;;;;;5005120;28;20045;-66
2022/11/18 09:36:16;;;;;;;5.75;0.95;;;15.90;95.40;;;;;;5012445;28;20030;-66
2022/11/18 09:38:46;;;;;;;2.00;0.50;;;15.80;95.70;;;;;;5018218;28;20057;-68
2022/11/18 09:41:53;;;;;;;2.08;0.52;;;15.80;95.90;;;;;;5020421;28;20037;-67
2022/11/18 09:44:35;;;;;;;3.20;1.17;;;15.80;96.40;;;;;;5003242;28;20045;-67
2022/11/18 09:47:25;;;;;;;6.68;0.55;;;15.80;96.90;;;;;;5008613;28;20038;-66
2022/11/18 09:49:56;;;;;;;7.07;1.25;;;15.70;97.00;;;;;;5004030;28;20406;-66
2022/11/18 09:52:35;;;;;;;7.85;0.85;;;15.70;97.50;;;;;;5009472;28;20022;-65
2022/11/18 09:55:18;;;;;;;5.95;0.98;;;15.60;97.20;;;;;;5009210;28;20073;-66
2022/11/18 09:57:50;;;;;;;3.83;0.70;;;15.40;97.80;;;;;;5008029;28;20065;-67
2022/11/18 10:00:21;;;;;;;7.43;0.90;;;15.30;97.70;;;;;;5009668;28;20491;-66
2022/11/18 10:03:15;;;;;;;3.95;1.08;;;15.20;98.30;;;;;;5009176;28;20165;-65
2022/11/18 10:06:06;;;;;;;5.00;0.70;;;15.00;99.20;;;;;;5008411;28;20121;-67
2022/11/18 10:09:09;;;;;;;4.32;0.77;;;14.90;99.80;;;;;;5008548;28;20029;-65
2022/11/18 10:12:24;;;;;;;5.72;0.88;;;14.80;99.90;;;;;;5009702;28;20073;-66
2022/11/18 10:15:00;;;;;;;5.43;1.17;;;14.60;99.90;;;;;;4960725;28;20035;-65
2022/11/18 10:18:11;;;;;;;7.95;1.33;;;14.40;99.90;;;;;;4968347;28;20114;-67
2022/11/18 10:20:54;;;;;;;7.68;1.05;;;14.30;99.90;;;;;;4965657;28;20041;-65
2022/11/18 10:23:52;;;;;;;6.03;0.70;;;14.10;99.90;;;;;;5007284;28;20029;-66
2022/11/18 10:26:36;;;;;;;4.80;1.20;;;14.00;99.90;;;;;;5006532;28;20026;-65
2022/11/18 10:29:09;;;;;;;3.03;0.88;;;13.90;99.90;;;;;;5013364;28;20029;-65
2022/11/18 10:31:56;;;;;;;3.00;1.17;;;13.90;99.90;;;;;;5018624;28;20072;-65
2022/11/18 10:34:23;;;;;;;3.58;0.90;;;13.80;99.90;;;;;;5007468;28;20022;-65
2022/11/18 10:37:06;;;;;;;8.80;1.90;;;13.70;99.90;;;;;;5021802;28;20033;-67
2022/11/18 10:39:48;;;;;;;6.95;0.90;;;13.60;99.90;;;;;;5012911;28;20092;-65
2022/11/18 10:42:23;;;;;;;5.47;1.13;;;13.60;99.90;;;;;;5017529;28;20029;-65
2022/11/18 10:44:51;;;;;;;9.60;3.03;;;13.50;99.90;;;;;;5017254;28;20465;-65
2022/11/18 10:47:33;;;;;;;4.18;0.95;;;13.40;99.90;;;;;;5022685;28;20048;-65
2022/11/18 10:50:21;;;;;;;6.13;0.82;;;13.40;99.90;;;;;;5010250;28;20047;-64
2022/11/18 10:52:53;;;;;;;5.45;1.13;;;13.30;99.90;;;;;;5010078;28;20441;-65
2022/11/18 10:55:25;;;;;;;3.38;0.85;;;13.20;99.90;;;;;;5014636;28;20087;-65
2022/11/18 10:58:02;;;;;;;8.23;0.80;;;13.10;99.90;;;;;;5022388;28;20045;-65
2022/11/18 11:00:46;;;;;;;7.07;0.90;;;13.00;99.90;;;;;;5020596;28;20112;-64
2022/11/18 11:03:32;;;;;;;5.78;0.90;;;12.90;99.90;;;;;;5013002;28;20429;-65
2022/11/18 11:06:31;;;;;;;6.57;0.90;;;12.90;99.90;;;;;;5011149;28;20042;-66
2022/11/18 11:09:03;;;;;;;3.53;0.95;;;12.80;99.90;;;;;;5011537;28;20056;-66
2022/11/18 11:11:39;;;;;;;12.27;1.60;;;12.70;99.90;;;;;;5008329;28;20056;-65
2022/11/18 11:14:21;;;;;;;8.90;0.77;;;12.70;99.90;;;;;;5012784;28;20042;-66
2022/11/18 11:17:08;;;;;;;3.65;1.25;;;12.60;99.90;;;;;;5002898;28;20021;-65
2022/11/18 11:20:17;;;;;;;5.20;0.70;;;12.60;99.90;;;;;;5004881;28;20022;-66
2022/11/18 11:22:45;;;;;;;8.40;1.30;;;12.60;99.90;;;;;;4988883;28;20042;-65
2022/11/18 11:25:35;;;;;;;8.80;1.20;;;12.70;99.90;;;;;;5012966;28;20044;-65
2022/11/18 11:28:07;;;;;;;3.10;0.73;;;12.70;99.90;;;;;;5007230;28;20429;-65
2022/11/18 11:31:01;;;;;;;2.75;0.80;;;12.60;99.90;;;;;;5009401;28;20510;-64
2022/11/18 11:34:02;;;;;;;6.93;1.23;;;12.60;99.90;;;;;;4986746;28;20491;-64
2022/11/18 11:36:38;;;;;;;6.25;1.10;;;12.70;99.90;;;;;;4988184;28;20025;-63
2022/11/18 11:39:33;;;;;;;7.40;0.88;;;12.70;99.90;;;;;;4993034;28;20121;-65
2022/11/18 11:42:36;;;;;;;5.27;0.80;;;12.70;99.90;;;;;;4991554;28;20034;-65
2022/11/18 11:45:33;;;;;;;4.35;0.70;;;12.60;99.90;;;;;;4993107;28;20030;-65
2022/11/18 11:48:27;;;;;;;4.03;1.45;;;12.50;99.90;;;;;;4989004;28;20062;-65
2022/11/18 11:50:59;;;;;;;5.78;1.30;;;12.40;99.90;;;;;;4992287;28;20030;-65
2022/11/18 11:53:48;;;;;;;4.10;1.08;;;12.40;99.90;;;;;;4987601;28;20018;-65
2022/11/18 11:56:34;;;;;;;4.47;0.90;;;12.30;99.90;;;;;;4985812;28;20452;-65
2022/11/18 11:59:19;;;;;;;4.10;0.90;;;12.20;99.90;;;;;;4984476;28;20455;-65
2022/11/18 12:02:14;;;;;;;3.90;0.88;;;12.10;99.90;;;;;;4980975;28;20019;-65
2022/11/18 12:05:12;;;;;;;5.40;1.20;;;12.00;99.90;;;;;;4987989;28;20038;-66
2022/11/18 12:07:48;;;;;;;3.10;1.10;;;11.90;99.90;;;;;;4981534;28;20385;-65
2022/11/18 12:10:37;;;;;;;5.85;1.00;;;11.80;99.90;;;;;;4984661;28;20026;-65
2022/11/18 12:13:25;;;;;;;4.70;1.55;;;11.80;99.90;;;;;;4988215;28;20430;-66
2022/11/18 12:16:20;;;;;;;7.43;1.30;;;11.80;99.90;;;;;;4984415;28;20045;-66
2022/11/18 12:19:08;;;;;;;11.50;2.30;;;11.70;99.90;;;;;;4984510;28;20049;-67
2022/11/18 12:21:47;;;;;;;5.38;1.15;;;11.60;99.90;;;;;;4984233;28;20058;-65
2022/11/18 12:24:36;;;;;;;2.58;0.82;;;11.60;99.90;;;;;;4987309;28;20033;-67
2022/11/18 12:27:13;;;;;;;6.95;1.02;;;11.50;99.90;;;;;;4983521;28;20050;-66
2022/11/18 12:29:49;;;;;;;5.05;1.25;;;11.50;99.90;;;;;;4982967;28;20030;-66
2022/11/18 12:32:27;;;;;;;2.63;0.80;;;11.50;99.90;;;;;;4988310;28;20210;-66
2022/11/18 12:35:13;;;;;;;2.70;0.65;;;11.40;99.90;;;;;;5014790;28;20030;-66
2022/11/18 12:37:44;;;;;;;3.17;0.90;;;11.30;99.90;;;;;;5016937;28;20025;-65
2022/11/18 12:40:33;;;;;;;5.55;1.25;;;11.30;99.90;;;;;;5011818;28;20056;-66
2022/11/18 12:45:48;;;;;;;3.95;0.95;;;11.20;99.90;;;;;;5013056;28;20810;-66
2022/11/18 12:48:31;;;;;;;5.50;1.17;;;11.20;99.90;;;;;;5011219;28;20037;-66
2022/11/18 12:51:14;;;;;;;3.30;1.00;;;11.10;99.90;;;;;;5011686;28;20025;-66
2022/11/18 12:53:59;;;;;;;7.07;1.92;;;11.10;99.90;;;;;;5004804;28;20113;-65
2022/11/18 12:56:35;;;;;;;3.92;1.42;;;11.10;99.90;;;;;;5002397;28;20402;-64
2022/11/18 12:59:03;;;;;;;4.03;1.13;;;11.10;99.90;;;;;;5013069;28;20040;-66
2022/11/18 13:01:35;;;;;;;4.20;1.27;;;11.10;99.90;;;;;;5009767;28;21895;-65
2022/11/18 13:04:20;;;;;;;7.45;1.55;;;11.10;99.90;;;;;;5013020;28;20025;-66
2022/11/18 13:06:52;;;;;;;16.48;1.92;;;11.10;99.90;;;;;;5014140;28;20430;-65
2022/11/18 13:09:34;;;;;;;5.40;1.60;;;11.10;99.90;;;;;;5006395;28;20069;-65
2022/11/18 13:12:14;;;;;;;9.63;1.60;;;11.10;99.90;;;;;;5007414;28;20038;-63
2022/11/18 13:17:57;;;;;;;8.15;1.75;;;11.10;99.90;;;;;;4988003;28;20062;-65
2022/11/18 13:20:34;;;;;;;7.97;2.47;;;11.20;99.90;;;;;;5008151;28;20503;-65
2022/11/18 13:26:07;;;;;;;7.22;1.63;;;11.00;99.90;;;;;;5010794;28;20061;-65
2022/11/18 13:28:58;;;;;;;5.32;1.67;;;11.10;99.90;;;;;;5008646;28;20101;-65
2022/11/18 13:31:31;;;;;;;4.80;1.02;;;11.10;99.90;;;;;;5014604;28;20021;-64
2022/11/18 13:34:31;;;;;;;11.07;1.42;;;11.00;99.90;;;;;;5011943;28;20117;-65
2022/11/18 13:37:00;;;;;;;5.32;2.60;;;11.00;99.90;;;;;;5001999;28;20048;-65
2022/11/18 13:39:28;;;;;;;10.07;1.70;;;11.00;99.90;;;;;;5007570;28;20053;-65
2022/11/18 13:42:04;;;;;;;7.90;1.90;;;10.90;99.90;;;;;;5009835;28;20037;-65
2022/11/18 13:44:36;;;;;;;4.95;1.77;;;10.80;99.90;;;;;;5010055;28;20022;-64
2022/11/18 13:47:06;;;;;;;4.28;1.25;;;10.70;99.90;;;;;;5015969;28;20042;-63
2022/11/18 13:50:00;;;;;;;9.45;1.50;;;10.70;99.90;;;;;;5013081;28;20022;-65